Tome-Acu, Brazil
Current Conditions -  °F | °C
As of 9:00 AM on Friday 31 Oct 2014 (Local Time) from SBBE Reporting Station
Scattered Clouds Scattered Clouds  
Wind Chill: 82°   Ceiling: Unl
Heat Index: 88°   Visibility: 6mi
Dew Point: 73°   Wind: 18mph
Humidity: 74%   Direction: 90°E
Pressure: 29.88"   Gusts: NA
Location:  2.42°S, 48.15°W
Report Text: SBBE 311200Z 09016KT 9999 SCT020 28/23 Q1012
Loading
Personal Weather Stations






























Interactive Weather Map
Tropical Storm Tracking
New forecast layout! Learn more

10-Day Weather Forecast

Advertisements
Track Severe Weather on mobile